sensor_id;sensor_type;location;lat;lon;timestamp;pressure;altitude;pressure_sealevel;temperature;humidity
47430;BME280;33181;49.246;7.372;2023-08-20T00:01:24;99206.66;;;23.34;96.03
47430;BME280;33181;49.246;7.372;2023-08-20T00:03:51;99200.22;;;23.29;95.22
47430;BME280;33181;49.246;7.372;2023-08-20T00:06:22;99200.38;;;23.21;95.67
47430;BME280;33181;49.246;7.372;2023-08-20T00:08:48;99204.06;;;23.20;96.31
47430;BME280;33181;49.246;7.372;2023-08-20T00:11:15;99197.66;;;23.14;96.66
47430;BME280;33181;49.246;7.372;2023-08-20T00:13:41;99201.16;;;23.15;97.25
47430;BME280;33181;49.246;7.372;2023-08-20T00:16:08;99205.69;;;23.14;97.03
47430;BME280;33181;49.246;7.372;2023-08-20T00:18:34;99202.16;;;23.13;96.71
47430;BME280;33181;49.246;7.372;2023-08-20T00:21:01;99204.00;;;23.13;96.85
47430;BME280;33181;49.246;7.372;2023-08-20T00:23:28;99211.44;;;23.11;96.33
47430;BME280;33181;49.246;7.372;2023-08-20T00:25:54;99213.47;;;23.09;96.34
47430;BME280;33181;49.246;7.372;2023-08-20T00:28:20;99216.69;;;23.04;96.16
47430;BME280;33181;49.246;7.372;2023-08-20T00:30:46;99225.13;;;23.01;96.50
47430;BME280;33181;49.246;7.372;2023-08-20T00:33:12;99218.94;;;23.01;96.74
47430;BME280;33181;49.246;7.372;2023-08-20T00:35:38;99225.97;;;23.02;96.34
47430;BME280;33181;49.246;7.372;2023-08-20T00:38:05;99226.81;;;23.02;96.35
47430;BME280;33181;49.246;7.372;2023-08-20T00:40:31;99228.47;;;23.03;96.49
47430;BME280;33181;49.246;7.372;2023-08-20T00:42:57;99231.34;;;23.02;96.05
47430;BME280;33181;49.246;7.372;2023-08-20T00:45:24;99229.88;;;22.99;96.04
47430;BME280;33181;49.246;7.372;2023-08-20T00:47:51;99225.53;;;22.98;95.95
47430;BME280;33181;49.246;7.372;2023-08-20T00:50:17;99224.81;;;22.89;96.34
47430;BME280;33181;49.246;7.372;2023-08-20T00:52:44;99222.44;;;22.80;96.77
47430;BME280;33181;49.246;7.372;2023-08-20T00:55:11;99219.31;;;22.76;97.11
47430;BME280;33181;49.246;7.372;2023-08-20T00:57:41;99224.47;;;22.78;97.51
47430;BME280;33181;49.246;7.372;2023-08-20T01:00:09;99223.81;;;22.76;97.39
47430;BME280;33181;49.246;7.372;2023-08-20T01:02:37;99221.78;;;22.78;97.33
47430;BME280;33181;49.246;7.372;2023-08-20T01:05:06;99215.16;;;22.74;97.32
47430;BME280;33181;49.246;7.372;2023-08-20T01:07:48;99211.13;;;22.63;97.23
47430;BME280;33181;49.246;7.372;2023-08-20T01:13:01;99202.09;;;22.64;97.68
47430;BME280;33181;49.246;7.372;2023-08-20T01:15:27;99206.22;;;22.66;97.62
47430;BME280;33181;49.246;7.372;2023-08-20T01:17:53;99199.22;;;22.65;97.54
47430;BME280;33181;49.246;7.372;2023-08-20T01:20:23;99196.34;;;22.67;97.29
47430;BME280;33181;49.246;7.372;2023-08-20T01:28:55;99199.72;;;22.54;96.93
47430;BME280;33181;49.246;7.372;2023-08-20T01:31:23;99200.72;;;22.53;96.66
47430;BME280;33181;49.246;7.372;2023-08-20T01:33:51;99199.91;;;22.53;96.92
47430;BME280;33181;49.246;7.372;2023-08-20T01:36:17;99196.41;;;22.52;96.53
47430;BME280;33181;49.246;7.372;2023-08-20T01:38:43;99205.09;;;22.54;96.65
47430;BME280;33181;49.246;7.372;2023-08-20T01:41:09;99205.47;;;22.51;96.40
47430;BME280;33181;49.246;7.372;2023-08-20T01:43:35;99203.16;;;22.48;96.00
47430;BME280;33181;49.246;7.372;2023-08-20T01:46:01;99209.72;;;22.46;96.31
47430;BME280;33181;49.246;7.372;2023-08-20T01:48:26;99210.53;;;22.46;96.49
47430;BME280;33181;49.246;7.372;2023-08-20T01:50:52;99208.50;;;22.48;96.54
47430;BME280;33181;49.246;7.372;2023-08-20T01:53:18;99207.03;;;22.46;96.30
47430;BME280;33181;49.246;7.372;2023-08-20T01:55:44;99209.06;;;22.43;96.24
47430;BME280;33181;49.246;7.372;2023-08-20T01:58:09;99213.31;;;22.38;96.68
47430;BME280;33181;49.246;7.372;2023-08-20T02:00:35;99210.47;;;22.39;96.45
47430;BME280;33181;49.246;7.372;2023-08-20T02:03:01;99216.00;;;22.38;96.18
47430;BME280;33181;49.246;7.372;2023-08-20T02:05:27;99213.69;;;22.35;95.97
47430;BME280;33181;49.246;7.372;2023-08-20T02:07:54;99215.31;;;22.29;96.27
47430;BME280;33181;49.246;7.372;2023-08-20T02:10:20;99216.13;;;22.30;96.44
47430;BME280;33181;49.246;7.372;2023-08-20T02:12:46;99218.81;;;22.30;96.41
47430;BME280;33181;49.246;7.372;2023-08-20T02:15:12;99223.13;;;22.31;96.18
47430;BME280;33181;49.246;7.372;2023-08-20T02:17:38;99219.44;;;22.32;96.18
47430;BME280;33181;49.246;7.372;2023-08-20T02:20:05;99224.59;;;22.33;95.65
47430;BME280;33181;49.246;7.372;2023-08-20T02:22:31;99220.28;;;22.32;95.71
47430;BME280;33181;49.246;7.372;2023-08-20T02:24:56;99219.81;;;22.29;95.89
47430;BME280;33181;49.246;7.372;2023-08-20T02:27:22;99222.31;;;22.30;95.90
47430;BME280;33181;49.246;7.372;2023-08-20T02:29:48;99218.81;;;22.30;95.89
47430;BME280;33181;49.246;7.372;2023-08-20T02:32:14;99217.13;;;22.29;95.77
47430;BME280;33181;49.246;7.372;2023-08-20T02:34:40;99219.56;;;22.24;95.51
47430;BME280;33181;49.246;7.372;2023-08-20T02:37:05;99218.53;;;22.25;95.82
47430;BME280;33181;49.246;7.372;2023-08-20T02:39:32;99227.59;;;22.24;95.49
47430;BME280;33181;49.246;7.372;2023-08-20T02:41:58;99217.03;;;22.22;95.46
47430;BME280;33181;49.246;7.372;2023-08-20T02:44:23;99230.44;;;22.22;95.43
47430;BME280;33181;49.246;7.372;2023-08-20T02:46:53;99218.66;;;22.16;95.51
47430;BME280;33181;49.246;7.372;2023-08-20T02:49:21;99222.03;;;22.10;95.71
47430;BME280;33181;49.246;7.372;2023-08-20T02:51:47;99213.53;;;22.07;96.30
47430;BME280;33181;49.246;7.372;2023-08-20T02:54:13;99216.84;;;22.09;96.42
47430;BME280;33181;49.246;7.372;2023-08-20T02:56:39;99216.84;;;22.09;96.48
47430;BME280;33181;49.246;7.372;2023-08-20T02:59:04;99215.38;;;22.06;96.34
47430;BME280;33181;49.246;7.372;2023-08-20T03:01:30;99214.19;;;22.09;96.35
47430;BME280;33181;49.246;7.372;2023-08-20T03:03:56;99209.03;;;22.07;96.26
47430;BME280;33181;49.246;7.372;2023-08-20T03:06:22;99202.00;;;22.06;96.37
47430;BME280;33181;49.246;7.372;2023-08-20T03:08:48;99205.31;;;22.08;96.12
47430;BME280;33181;49.246;7.372;2023-08-20T03:11:14;99200.16;;;22.07;95.91
47430;BME280;33181;49.246;7.372;2023-08-20T03:13:40;99204.88;;;22.05;95.87
47430;BME280;33181;49.246;7.372;2023-08-20T03:16:06;99196.47;;;21.93;95.99
47430;BME280;33181;49.246;7.372;2023-08-20T03:18:31;99196.19;;;21.88;96.18
47430;BME280;33181;49.246;7.372;2023-08-20T03:20:57;99193.72;;;21.86;96.62
47430;BME280;33181;49.246;7.372;2023-08-20T03:23:24;99203.22;;;21.89;96.90
47430;BME280;33181;49.246;7.372;2023-08-20T03:25:49;99195.81;;;21.91;96.85
47430;BME280;33181;49.246;7.372;2023-08-20T03:28:20;99194.00;;;21.91;97.01
47430;BME280;33181;49.246;7.372;2023-08-20T03:30:46;99204.44;;;21.86;96.52
47430;BME280;33181;49.246;7.372;2023-08-20T03:33:12;99204.78;;;21.83;96.76
47430;BME280;33181;49.246;7.372;2023-08-20T03:35:39;99202.78;;;21.85;96.98
47430;BME280;33181;49.246;7.372;2023-08-20T03:38:04;99205.25;;;21.87;96.94
47430;BME280;33181;49.246;7.372;2023-08-20T03:40:30;99202.78;;;21.85;96.91
47430;BME280;33181;49.246;7.372;2023-08-20T03:42:56;99200.25;;;21.84;97.13
47430;BME280;33181;49.246;7.372;2023-08-20T03:45:21;99203.16;;;21.82;96.91
47430;BME280;33181;49.246;7.372;2023-08-20T03:47:47;99200.25;;;21.84;97.00
47430;BME280;33181;49.246;7.372;2023-08-20T03:50:13;99213.84;;;21.82;96.87
47430;BME280;33181;49.246;7.372;2023-08-20T03:52:39;99214.84;;;21.81;96.95
47430;BME280;33181;49.246;7.372;2023-08-20T03:55:05;99217.34;;;21.83;97.19
47430;BME280;33181;49.246;7.372;2023-08-20T03:57:31;99222.31;;;21.86;97.50
47430;BME280;33181;49.246;7.372;2023-08-20T03:59:57;99221.97;;;21.89;97.05
47430;BME280;33181;49.246;7.372;2023-08-20T04:02:23;99230.81;;;21.89;97.16
47430;BME280;33181;49.246;7.372;2023-08-20T04:04:49;99229.63;;;21.92;97.08
47430;BME280;33181;49.246;7.372;2023-08-20T04:07:15;99226.28;;;21.90;96.83
47430;BME280;33181;49.246;7.372;2023-08-20T04:09:43;99226.94;;;21.77;96.65
47430;BME280;33181;49.246;7.372;2023-08-20T04:12:08;99226.00;;;21.70;96.86
47430;BME280;33181;49.246;7.372;2023-08-20T04:14:34;99231.63;;;21.60;97.34
47430;BME280;33181;49.246;7.372;2023-08-20T04:17:00;99235.84;;;21.55;97.66
47430;BME280;33181;49.246;7.372;2023-08-20T04:19:26;99233.19;;;21.55;97.77
47430;BME280;33181;49.246;7.372;2023-08-20T04:21:52;99242.31;;;21.60;98.36
47430;BME280;33181;49.246;7.372;2023-08-20T04:24:17;99238.63;;;21.61;98.00
47430;BME280;33181;49.246;7.372;2023-08-20T04:26:43;99236.59;;;21.63;98.18
47430;BME280;33181;49.246;7.372;2023-08-20T04:29:10;99242.22;;;21.68;98.30
47430;BME280;33181;49.246;7.372;2023-08-20T04:31:35;99232.84;;;21.72;97.93
47430;BME280;33181;49.246;7.372;2023-08-20T04:34:01;99234.56;;;21.65;97.83
47430;BME280;33181;49.246;7.372;2023-08-20T04:36:27;99230.81;;;21.60;98.73
47430;BME280;33181;49.246;7.372;2023-08-20T04:38:53;99231.34;;;21.55;99.62
47430;BME280;33181;49.246;7.372;2023-08-20T04:41:18;99224.59;;;21.59;100.00
47430;BME280;33181;49.246;7.372;2023-08-20T04:43:44;99241.59;;;21.66;99.92
47430;BME280;33181;49.246;7.372;2023-08-20T04:46:10;99245.72;;;21.69;99.55
47430;BME280;33181;49.246;7.372;2023-08-20T04:48:35;99242.50;;;21.73;99.39
47430;BME280;33181;49.246;7.372;2023-08-20T04:51:01;99246.84;;;21.74;99.09
47430;BME280;33181;49.246;7.372;2023-08-20T04:53:27;99240.66;;;21.74;98.18
47430;BME280;33181;49.246;7.372;2023-08-20T04:55:53;99232.47;;;21.75;98.74
47430;BME280;33181;49.246;7.372;2023-08-20T04:58:19;99249.81;;;21.80;98.66
47430;BME280;33181;49.246;7.372;2023-08-20T05:00:44;99254.13;;;21.81;98.38
47430;BME280;33181;49.246;7.372;2023-08-20T05:03:10;99250.47;;;21.82;98.15
47430;BME280;33181;49.246;7.372;2023-08-20T05:05:36;99251.91;;;21.84;98.35
47430;BME280;33181;49.246;7.372;2023-08-20T05:08:02;99254.22;;;21.87;98.08
47430;BME280;33181;49.246;7.372;2023-08-20T05:10:28;99257.47;;;21.97;98.25
47430;BME280;33181;49.246;7.372;2023-08-20T05:12:53;99255.25;;;22.01;98.04
47430;BME280;33181;49.246;7.372;2023-08-20T05:15:19;99260.78;;;21.99;97.63
47430;BME280;33181;49.246;7.372;2023-08-20T05:17:45;99259.28;;;21.97;97.57
47430;BME280;33181;49.246;7.372;2023-08-20T05:20:11;99264.28;;;22.00;97.58
47430;BME280;33181;49.246;7.372;2023-08-20T05:22:37;99267.91;;;22.07;97.58
47430;BME280;33181;49.246;7.372;2023-08-20T05:25:03;99271.66;;;22.13;97.57
47430;BME280;33181;49.246;7.372;2023-08-20T05:27:29;99266.97;;;22.15;97.21
47430;BME280;33181;49.246;7.372;2023-08-20T05:29:55;99268.47;;;22.17;97.21
47430;BME280;33181;49.246;7.372;2023-08-20T05:32:20;99263.41;;;22.23;97.22
47430;BME280;33181;49.246;7.372;2023-08-20T05:34:46;99278.06;;;22.27;97.10
47430;BME280;33181;49.246;7.372;2023-08-20T05:37:12;99279.53;;;22.29;97.22
47430;BME280;33181;49.246;7.372;2023-08-20T05:39:43;99283.03;;;22.30;97.07
47430;BME280;33181;49.246;7.372;2023-08-20T05:42:09;99273.53;;;22.27;96.40
47430;BME280;33181;49.246;7.372;2023-08-20T05:44:36;99278.31;;;22.32;97.12
47430;BME280;33181;49.246;7.372;2023-08-20T05:47:01;99292.44;;;22.40;97.52
47430;BME280;33181;49.246;7.372;2023-08-20T05:49:27;99291.03;;;22.59;97.05
47430;BME280;33181;49.246;7.372;2023-08-20T05:51:53;99282.50;;;22.71;96.72
47430;BME280;33181;49.246;7.372;2023-08-20T05:54:19;99293.38;;;22.84;96.40
47430;BME280;33181;49.246;7.372;2023-08-20T05:56:45;99296.22;;;22.82;94.82
47430;BME280;33181;49.246;7.372;2023-08-20T05:59:11;99300.09;;;22.95;94.68
47430;BME280;33181;49.246;7.372;2023-08-20T06:01:36;99292.50;;;23.20;93.95
47430;BME280;33181;49.246;7.372;2023-08-20T06:04:03;99278.81;;;23.57;92.82
47430;BME280;33181;49.246;7.372;2023-08-20T06:06:29;99279.66;;;23.86;90.73
47430;BME280;33181;49.246;7.372;2023-08-20T06:08:54;99278.66;;;24.22;89.45
47430;BME280;33181;49.246;7.372;2023-08-20T06:11:21;99273.84;;;24.59;87.57
47430;BME280;33181;49.246;7.372;2023-08-20T06:13:46;99279.97;;;24.94;84.93
47430;BME280;33181;49.246;7.372;2023-08-20T06:16:12;99282.94;;;25.39;82.78
47430;BME280;33181;49.246;7.372;2023-08-20T06:18:38;99283.34;;;25.76;80.61
47430;BME280;33181;49.246;7.372;2023-08-20T06:21:04;99289.72;;;26.08;78.49
47430;BME280;33181;49.246;7.372;2023-08-20T06:23:30;99291.72;;;26.39;76.52
47430;BME280;33181;49.246;7.372;2023-08-20T06:25:55;99293.06;;;26.68;73.91
47430;BME280;33181;49.246;7.372;2023-08-20T06:28:21;99286.97;;;26.86;71.66
47430;BME280;33181;49.246;7.372;2023-08-20T06:30:47;99292.84;;;27.08;71.54
47430;BME280;33181;49.246;7.372;2023-08-20T06:33:13;99296.50;;;27.20;69.37
47430;BME280;33181;49.246;7.372;2023-08-20T06:35:39;99306.09;;;27.41;69.26
47430;BME280;33181;49.246;7.372;2023-08-20T06:38:07;99303.34;;;27.48;68.27
47430;BME280;33181;49.246;7.372;2023-08-20T06:40:33;99300.22;;;27.76;67.86
47430;BME280;33181;49.246;7.372;2023-08-20T06:43:02;99297.66;;;28.06;66.89
47430;BME280;33181;49.246;7.372;2023-08-20T06:45:28;99299.84;;;28.34;65.81
47430;BME280;33181;49.246;7.372;2023-08-20T06:47:53;99306.38;;;28.63;64.43
47430;BME280;33181;49.246;7.372;2023-08-20T06:50:19;99314.59;;;28.87;63.63
47430;BME280;33181;49.246;7.372;2023-08-20T06:52:45;99314.72;;;29.10;63.16
47430;BME280;33181;49.246;7.372;2023-08-20T06:55:11;99315.38;;;29.36;62.80
47430;BME280;33181;49.246;7.372;2023-08-20T06:57:36;99311.38;;;29.39;61.54
47430;BME280;33181;49.246;7.372;2023-08-20T07:00:03;99311.97;;;29.41;61.51
47430;BME280;33181;49.246;7.372;2023-08-20T07:02:30;99304.47;;;29.54;61.94
47430;BME280;33181;49.246;7.372;2023-08-20T07:04:56;99317.16;;;29.54;60.97
47430;BME280;33181;49.246;7.372;2023-08-20T07:07:22;99318.09;;;29.60;61.17
47430;BME280;33181;49.246;7.372;2023-08-20T07:09:47;99314.03;;;29.92;61.19
47430;BME280;33181;49.246;7.372;2023-08-20T07:12:13;99317.44;;;30.23;59.67
47430;BME280;33181;49.246;7.372;2023-08-20T07:14:39;99317.22;;;30.36;58.62
47430;BME280;33181;49.246;7.372;2023-08-20T07:17:05;99321.09;;;30.40;59.08
47430;BME280;33181;49.246;7.372;2023-08-20T07:19:31;99320.00;;;30.41;59.34
47430;BME280;33181;49.246;7.372;2023-08-20T07:21:57;99318.88;;;30.66;58.87
47430;BME280;33181;49.246;7.372;2023-08-20T07:24:23;99329.94;;;30.88;58.28
47430;BME280;33181;49.246;7.372;2023-08-20T07:26:52;99322.06;;;30.75;58.05
47430;BME280;33181;49.246;7.372;2023-08-20T07:29:18;99319.81;;;30.83;57.54
47430;BME280;33181;49.246;7.372;2023-08-20T07:31:44;99325.03;;;31.02;57.38
47430;BME280;33181;49.246;7.372;2023-08-20T07:34:09;99316.81;;;31.13;56.95
47430;BME280;33181;49.246;7.372;2023-08-20T07:36:35;99315.31;;;31.34;57.09
47430;BME280;33181;49.246;7.372;2023-08-20T07:39:03;99316.75;;;31.37;55.77
47430;BME280;33181;49.246;7.372;2023-08-20T07:41:29;99320.81;;;31.39;56.29
47430;BME280;33181;49.246;7.372;2023-08-20T07:43:55;99319.28;;;31.60;56.21
47430;BME280;33181;49.246;7.372;2023-08-20T07:46:21;99312.50;;;31.80;55.84
47430;BME280;33181;49.246;7.372;2023-08-20T07:48:47;99315.94;;;32.09;55.12
47430;BME280;33181;49.246;7.372;2023-08-20T07:51:13;99312.72;;;32.12;55.55
47430;BME280;33181;49.246;7.372;2023-08-20T07:53:39;99306.56;;;32.17;54.93
47430;BME280;33181;49.246;7.372;2023-08-20T07:56:04;99311.50;;;32.03;54.30
47430;BME280;33181;49.246;7.372;2023-08-20T07:58:30;99308.88;;;32.08;55.21
47430;BME280;33181;49.246;7.372;2023-08-20T08:00:56;99309.78;;;32.36;55.44
47430;BME280;33181;49.246;7.372;2023-08-20T08:03:29;99311.53;;;32.64;54.50
47430;BME280;33181;49.246;7.372;2023-08-20T08:05:57;99306.06;;;32.86;54.05
47430;BME280;33181;49.246;7.372;2023-08-20T08:08:23;99317.19;;;32.62;52.81
47430;BME280;33181;49.246;7.372;2023-08-20T08:10:50;99307.44;;;32.22;54.53
47430;BME280;33181;49.246;7.372;2023-08-20T08:13:19;99321.44;;;31.75;55.21
47430;BME280;33181;49.246;7.372;2023-08-20T08:15:45;99321.69;;;31.40;56.59
47430;BME280;33181;49.246;7.372;2023-08-20T08:18:11;99318.50;;;31.31;57.83
47430;BME280;33181;49.246;7.372;2023-08-20T08:20:38;99313.78;;;31.27;56.70
47430;BME280;33181;49.246;7.372;2023-08-20T08:23:04;99315.09;;;31.53;57.00
47430;BME280;33181;49.246;7.372;2023-08-20T08:25:29;99320.75;;;31.51;55.32
47430;BME280;33181;49.246;7.372;2023-08-20T08:27:55;99326.94;;;31.47;55.17
47430;BME280;33181;49.246;7.372;2023-08-20T08:30:21;99328.81;;;31.46;55.99
47430;BME280;33181;49.246;7.372;2023-08-20T08:32:47;99335.50;;;31.55;55.91
47430;BME280;33181;49.246;7.372;2023-08-20T08:35:13;99333.53;;;31.22;56.87
47430;BME280;33181;49.246;7.372;2023-08-20T08:37:39;99322.84;;;31.32;56.35
47430;BME280;33181;49.246;7.372;2023-08-20T08:40:08;99321.72;;;31.28;56.79
47430;BME280;33181;49.246;7.372;2023-08-20T08:42:34;99328.59;;;31.19;56.83
47430;BME280;33181;49.246;7.372;2023-08-20T08:45:00;99324.88;;;31.37;56.16
47430;BME280;33181;49.246;7.372;2023-08-20T08:47:27;99324.47;;;31.45;56.22
47430;BME280;33181;49.246;7.372;2023-08-20T08:49:56;99316.88;;;31.64;55.94
47430;BME280;33181;49.246;7.372;2023-08-20T08:52:26;99318.19;;;31.61;54.79
47430;BME280;33181;49.246;7.372;2023-08-20T08:54:52;99326.84;;;31.42;56.26
47430;BME280;33181;49.246;7.372;2023-08-20T08:57:19;99318.72;;;31.30;56.00
47430;BME280;33181;49.246;7.372;2023-08-20T08:59:45;99322.16;;;31.08;55.99
47430;BME280;33181;49.246;7.372;2023-08-20T09:02:12;99312.00;;;31.32;56.79
47430;BME280;33181;49.246;7.372;2023-08-20T09:04:40;99319.25;;;31.77;55.38
47430;BME280;33181;49.246;7.372;2023-08-20T09:07:10;99321.34;;;32.04;54.38
47430;BME280;33181;49.246;7.372;2023-08-20T09:09:36;99311.78;;;32.01;53.77
47430;BME280;33181;49.246;7.372;2023-08-20T09:12:15;99319.00;;;31.28;53.97
47430;BME280;33181;49.246;7.372;2023-08-20T09:14:48;99302.19;;;31.14;55.17
47430;BME280;33181;49.246;7.372;2023-08-20T09:17:14;99302.59;;;31.23;54.18
47430;BME280;33181;49.246;7.372;2023-08-20T09:19:43;99305.97;;;31.30;54.17
47430;BME280;33181;49.246;7.372;2023-08-20T09:22:15;99302.81;;;31.33;55.04
47430;BME280;33181;49.246;7.372;2023-08-20T09:24:55;99307.44;;;31.67;54.78
47430;BME280;33181;49.246;7.372;2023-08-20T09:27:22;99308.28;;;32.06;53.72
47430;BME280;33181;49.246;7.372;2023-08-20T09:29:56;99304.72;;;32.22;53.13
47430;BME280;33181;49.246;7.372;2023-08-20T09:32:27;99305.38;;;32.73;52.17
47430;BME280;33181;49.246;7.372;2023-08-20T09:34:55;99315.78;;;32.82;50.83
47430;BME280;33181;49.246;7.372;2023-08-20T09:37:23;99312.91;;;33.15;50.24
47430;BME280;33181;49.246;7.372;2023-08-20T09:39:49;99318.22;;;33.59;50.31
47430;BME280;33181;49.246;7.372;2023-08-20T09:42:16;99316.13;;;34.09;46.98
47430;BME280;33181;49.246;7.372;2023-08-20T09:44:45;99324.16;;;34.31;45.57
47430;BME280;33181;49.246;7.372;2023-08-20T09:47:15;99326.41;;;34.49;45.07
47430;BME280;33181;49.246;7.372;2023-08-20T09:49:45;99328.47;;;34.27;44.43
47430;BME280;33181;49.246;7.372;2023-08-20T09:52:39;99321.28;;;34.05;44.62
47430;BME280;33181;49.246;7.372;2023-08-20T09:55:09;99321.53;;;34.04;44.67
47430;BME280;33181;49.246;7.372;2023-08-20T09:57:39;99317.75;;;33.67;45.24
47430;BME280;33181;49.246;7.372;2023-08-20T10:00:08;99322.03;;;33.31;48.08
47430;BME280;33181;49.246;7.372;2023-08-20T10:02:38;99325.06;;;33.35;47.91
47430;BME280;33181;49.246;7.372;2023-08-20T10:05:07;99322.97;;;33.15;49.24
47430;BME280;33181;49.246;7.372;2023-08-20T10:07:33;99322.25;;;33.25;46.54
47430;BME280;33181;49.246;7.372;2023-08-20T10:10:03;99324.59;;;33.43;46.62
47430;BME280;33181;49.246;7.372;2023-08-20T10:12:30;99320.78;;;33.44;46.64
47430;BME280;33181;49.246;7.372;2023-08-20T10:14:58;99309.34;;;33.79;45.23
47430;BME280;33181;49.246;7.372;2023-08-20T10:17:25;99313.94;;;34.11;45.70
47430;BME280;33181;49.246;7.372;2023-08-20T10:19:54;99314.38;;;34.45;45.13
47430;BME280;33181;49.246;7.372;2023-08-20T10:22:20;99310.13;;;34.70;43.97
47430;BME280;33181;49.246;7.372;2023-08-20T10:24:52;99309.63;;;34.78;44.20
47430;BME280;33181;49.246;7.372;2023-08-20T10:27:31;99310.22;;;35.00;42.61
47430;BME280;33181;49.246;7.372;2023-08-20T10:30:01;99314.38;;;35.39;41.87
47430;BME280;33181;49.246;7.372;2023-08-20T10:32:48;99317.38;;;35.83;40.71
47430;BME280;33181;49.246;7.372;2023-08-20T10:35:28;99318.97;;;36.20;40.52
47430;BME280;33181;49.246;7.372;2023-08-20T10:38:16;99312.84;;;36.43;39.82
47430;BME280;33181;49.246;7.372;2023-08-20T10:43:45;99309.81;;;36.55;40.69
47430;BME280;33181;49.246;7.372;2023-08-20T10:46:16;99313.50;;;36.00;40.31
47430;BME280;33181;49.246;7.372;2023-08-20T10:48:46;99308.03;;;36.00;40.50
47430;BME280;33181;49.246;7.372;2023-08-20T10:51:34;99311.34;;;36.07;40.89
47430;BME280;33181;49.246;7.372;2023-08-20T10:56:46;99309.03;;;36.45;38.81
47430;BME280;33181;49.246;7.372;2023-08-20T10:59:23;99301.84;;;36.59;39.55
47430;BME280;33181;49.246;7.372;2023-08-20T11:01:53;99300.16;;;36.68;39.24
47430;BME280;33181;49.246;7.372;2023-08-20T11:04:23;99303.94;;;36.77;38.07
47430;BME280;33181;49.246;7.372;2023-08-20T11:06:56;99293.25;;;36.76;37.77
47430;BME280;33181;49.246;7.372;2023-08-20T11:09:23;99297.22;;;37.04;38.45
47430;BME280;33181;49.246;7.372;2023-08-20T11:11:51;99293.88;;;36.68;38.59
47430;BME280;33181;49.246;7.372;2023-08-20T11:14:19;99300.81;;;36.99;40.29
47430;BME280;33181;49.246;7.372;2023-08-20T11:16:46;99303.81;;;36.43;39.22
47430;BME280;33181;49.246;7.372;2023-08-20T11:19:13;99299.88;;;35.48;40.66
47430;BME280;33181;49.246;7.372;2023-08-20T11:21:41;99295.91;;;34.68;42.57
47430;BME280;33181;49.246;7.372;2023-08-20T11:24:08;99296.19;;;33.66;44.01
47430;BME280;33181;49.246;7.372;2023-08-20T11:26:37;99295.38;;;33.65;44.62
47430;BME280;33181;49.246;7.372;2023-08-20T11:29:13;99299.94;;;33.97;44.71
47430;BME280;33181;49.246;7.372;2023-08-20T11:31:40;99295.38;;;34.55;44.68
47430;BME280;33181;49.246;7.372;2023-08-20T11:34:06;99299.53;;;34.99;41.70
47430;BME280;33181;49.246;7.372;2023-08-20T11:36:33;99300.34;;;34.99;41.42
47430;BME280;33181;49.246;7.372;2023-08-20T11:39:00;99292.78;;;35.07;40.71
47430;BME280;33181;49.246;7.372;2023-08-20T11:41:26;99300.97;;;35.47;41.21
47430;BME280;33181;49.246;7.372;2023-08-20T11:43:53;99300.72;;;35.54;40.29
47430;BME280;33181;49.246;7.372;2023-08-20T11:46:21;99292.78;;;35.17;40.42
47430;BME280;33181;49.246;7.372;2023-08-20T11:49:10;99286.75;;;35.04;41.40
47430;BME280;33181;49.246;7.372;2023-08-20T11:51:37;99291.09;;;35.05;41.17
47430;BME280;33181;49.246;7.372;2023-08-20T11:54:09;99284.19;;;34.67;42.40
47430;BME280;33181;49.246;7.372;2023-08-20T11:56:44;99284.78;;;34.74;42.34
47430;BME280;33181;49.246;7.372;2023-08-20T11:59:11;99284.50;;;34.96;41.77
47430;BME280;33181;49.246;7.372;2023-08-20T12:01:37;99280.47;;;35.29;41.36
47430;BME280;33181;49.246;7.372;2023-08-20T12:04:05;99285.13;;;35.29;40.29
47430;BME280;33181;49.246;7.372;2023-08-20T12:06:31;99280.78;;;35.54;40.71
47430;BME280;33181;49.246;7.372;2023-08-20T12:08:58;99277.19;;;35.53;40.58
47430;BME280;33181;49.246;7.372;2023-08-20T12:11:29;99281.00;;;35.52;40.93
47430;BME280;33181;49.246;7.372;2023-08-20T12:13:57;99273.38;;;35.69;41.29
47430;BME280;33181;49.246;7.372;2023-08-20T12:16:23;99272.19;;;36.06;39.95
47430;BME280;33181;49.246;7.372;2023-08-20T12:18:50;99274.06;;;36.21;39.26
47430;BME280;33181;49.246;7.372;2023-08-20T12:21:16;99269.59;;;36.40;39.32
47430;BME280;33181;49.246;7.372;2023-08-20T12:23:43;99280.59;;;36.25;38.74
47430;BME280;33181;49.246;7.372;2023-08-20T12:26:08;99271.75;;;36.49;39.60
47430;BME280;33181;49.246;7.372;2023-08-20T12:28:34;99276.97;;;36.55;38.75
47430;BME280;33181;49.246;7.372;2023-08-20T12:31:00;99278.66;;;36.91;38.14
47430;BME280;33181;49.246;7.372;2023-08-20T12:33:26;99278.38;;;36.37;38.60
47430;BME280;33181;49.246;7.372;2023-08-20T12:35:55;99269.59;;;36.46;37.52
47430;BME280;33181;49.246;7.372;2023-08-20T12:38:21;99281.63;;;36.55;38.10
47430;BME280;33181;49.246;7.372;2023-08-20T12:40:48;99277.63;;;36.81;38.15
47430;BME280;33181;49.246;7.372;2023-08-20T12:43:14;99276.47;;;36.87;38.42
47430;BME280;33181;49.246;7.372;2023-08-20T12:45:40;99275.06;;;37.00;38.21
47430;BME280;33181;49.246;7.372;2023-08-20T12:48:06;99274.00;;;36.91;37.77
47430;BME280;33181;49.246;7.372;2023-08-20T12:50:33;99268.84;;;36.84;37.81
47430;BME280;33181;49.246;7.372;2023-08-20T12:52:59;99280.25;;;36.97;37.39
47430;BME280;33181;49.246;7.372;2023-08-20T12:55:25;99264.72;;;36.87;37.31
47430;BME280;33181;49.246;7.372;2023-08-20T12:57:56;99266.47;;;36.08;37.48
47430;BME280;33181;49.246;7.372;2023-08-20T13:00:24;99261.59;;;35.48;38.04
47430;BME280;33181;49.246;7.372;2023-08-20T13:02:52;99268.72;;;35.49;38.79
47430;BME280;33181;49.246;7.372;2023-08-20T13:05:19;99263.81;;;35.36;39.61
47430;BME280;33181;49.246;7.372;2023-08-20T13:07:45;99270.09;;;35.26;40.75
47430;BME280;33181;49.246;7.372;2023-08-20T13:10:12;99264.09;;;35.50;39.98
47430;BME280;33181;49.246;7.372;2023-08-20T13:13:08;99255.06;;;35.44;38.52
47430;BME280;33181;49.246;7.372;2023-08-20T13:15:35;99265.16;;;35.18;39.98